sensor_id;sensor_type;location;lat;lon;timestamp;P1;durP1;ratioP1;P2;durP2;ratioP2
26953;SDS011;14508;50.924;11.600;2023-06-22T00:00:33;15.25;;;7.63;;
26953;SDS011;14508;50.924;11.600;2023-06-22T00:03:01;10.90;;;7.82;;
26953;SDS011;14508;50.924;11.600;2023-06-22T00:05:30;11.30;;;7.53;;
26953;SDS011;14508;50.924;11.600;2023-06-22T00:08:01;12.20;;;7.95;;
26953;SDS011;14508;50.924;11.600;2023-06-22T00:10:30;16.77;;;7.97;;
26953;SDS011;14508;50.924;11.600;2023-06-22T00:12:58;11.43;;;8.32;;
26953;SDS011;14508;50.924;11.600;2023-06-22T00:15:26;12.18;;;7.95;;
26953;SDS011;14508;50.924;11.600;2023-06-22T00:17:54;14.75;;;7.88;;
26953;SDS011;14508;50.924;11.600;2023-06-22T00:20:23;13.07;;;8.93;;
26953;SDS011;14508;50.924;11.600;2023-06-22T00:22:54;12.40;;;8.20;;
26953;SDS011;14508;50.924;11.600;2023-06-22T00:25:24;9.45;;;7.07;;
26953;SDS011;14508;50.924;11.600;2023-06-22T00:27:52;11.35;;;8.15;;
26953;SDS011;14508;50.924;11.600;2023-06-22T00:30:20;10.88;;;7.70;;
26953;SDS011;14508;50.924;11.600;2023-06-22T00:32:47;12.43;;;7.82;;
26953;SDS011;14508;50.924;11.600;2023-06-22T00:35:15;14.40;;;8.00;;
26953;SDS011;14508;50.924;11.600;2023-06-22T00:37:44;12.02;;;7.90;;
26953;SDS011;14508;50.924;11.600;2023-06-22T00:40:13;13.75;;;8.43;;
26953;SDS011;14508;50.924;11.600;2023-06-22T00:42:43;12.45;;;7.60;;
26953;SDS011;14508;50.924;11.600;2023-06-22T00:45:11;12.90;;;8.35;;
26953;SDS011;14508;50.924;11.600;2023-06-22T00:47:39;13.25;;;8.27;;
26953;SDS011;14508;50.924;11.600;2023-06-22T00:50:10;12.52;;;8.70;;
26953;SDS011;14508;50.924;11.600;2023-06-22T00:52:44;13.93;;;8.15;;
26953;SDS011;14508;50.924;11.600;2023-06-22T00:55:12;12.88;;;7.55;;
26953;SDS011;14508;50.924;11.600;2023-06-22T00:57:46;12.32;;;7.95;;
26953;SDS011;14508;50.924;11.600;2023-06-22T01:00:15;12.60;;;8.40;;
26953;SDS011;14508;50.924;11.600;2023-06-22T01:02:45;11.75;;;7.97;;
26953;SDS011;14508;50.924;11.600;2023-06-22T01:05:18;11.25;;;7.75;;
26953;SDS011;14508;50.924;11.600;2023-06-22T01:07:50;15.38;;;8.05;;
26953;SDS011;14508;50.924;11.600;2023-06-22T01:10:28;11.20;;;8.15;;
26953;SDS011;14508;50.924;11.600;2023-06-22T01:13:04;15.00;;;8.98;;
26953;SDS011;14508;50.924;11.600;2023-06-22T01:15:39;14.00;;;8.20;;
26953;SDS011;14508;50.924;11.600;2023-06-22T01:18:12;15.20;;;8.65;;
26953;SDS011;14508;50.924;11.600;2023-06-22T01:20:42;12.90;;;8.10;;
26953;SDS011;14508;50.924;11.600;2023-06-22T01:23:11;11.85;;;8.35;;
26953;SDS011;14508;50.924;11.600;2023-06-22T01:25:56;12.75;;;8.95;;
26953;SDS011;14508;50.924;11.600;2023-06-22T01:28:36;15.95;;;8.95;;
26953;SDS011;14508;50.924;11.600;2023-06-22T01:31:10;13.68;;;8.48;;
26953;SDS011;14508;50.924;11.600;2023-06-22T01:33:42;10.90;;;8.55;;
26953;SDS011;14508;50.924;11.600;2023-06-22T01:36:12;13.68;;;8.57;;
26953;SDS011;14508;50.924;11.600;2023-06-22T01:38:41;13.80;;;9.02;;
26953;SDS011;14508;50.924;11.600;2023-06-22T01:41:10;11.23;;;7.65;;
26953;SDS011;14508;50.924;11.600;2023-06-22T01:43:40;11.60;;;7.70;;
26953;SDS011;14508;50.924;11.600;2023-06-22T01:46:10;11.13;;;8.20;;
26953;SDS011;14508;50.924;11.600;2023-06-22T01:48:39;13.48;;;8.63;;
26953;SDS011;14508;50.924;11.600;2023-06-22T01:51:07;13.23;;;8.52;;
26953;SDS011;14508;50.924;11.600;2023-06-22T01:53:35;12.73;;;8.80;;
26953;SDS011;14508;50.924;11.600;2023-06-22T01:56:03;13.95;;;8.65;;
26953;SDS011;14508;50.924;11.600;2023-06-22T01:58:33;12.48;;;8.18;;
26953;SDS011;14508;50.924;11.600;2023-06-22T02:01:08;10.50;;;8.35;;
26953;SDS011;14508;50.924;11.600;2023-06-22T02:03:40;13.90;;;8.88;;
26953;SDS011;14508;50.924;11.600;2023-06-22T02:06:13;13.20;;;8.98;;
26953;SDS011;14508;50.924;11.600;2023-06-22T02:08:47;12.85;;;8.32;;
26953;SDS011;14508;50.924;11.600;2023-06-22T02:11:17;12.55;;;8.13;;
26953;SDS011;14508;50.924;11.600;2023-06-22T02:13:49;14.82;;;10.02;;
26953;SDS011;14508;50.924;11.600;2023-06-22T02:16:18;13.02;;;9.05;;
26953;SDS011;14508;50.924;11.600;2023-06-22T02:18:47;13.82;;;8.55;;
26953;SDS011;14508;50.924;11.600;2023-06-22T02:21:17;11.88;;;8.40;;
26953;SDS011;14508;50.924;11.600;2023-06-22T02:23:45;13.73;;;9.40;;
26953;SDS011;14508;50.924;11.600;2023-06-22T02:26:13;12.98;;;8.85;;
26953;SDS011;14508;50.924;11.600;2023-06-22T02:28:43;14.65;;;9.30;;
26953;SDS011;14508;50.924;11.600;2023-06-22T02:31:12;13.40;;;9.00;;
26953;SDS011;14508;50.924;11.600;2023-06-22T02:33:41;13.35;;;9.30;;
26953;SDS011;14508;50.924;11.600;2023-06-22T02:36:12;12.95;;;9.32;;
26953;SDS011;14508;50.924;11.600;2023-06-22T02:38:40;14.45;;;10.35;;
26953;SDS011;14508;50.924;11.600;2023-06-22T02:41:12;14.05;;;9.25;;
26953;SDS011;14508;50.924;11.600;2023-06-22T02:43:41;15.05;;;9.35;;
26953;SDS011;14508;50.924;11.600;2023-06-22T02:46:09;16.27;;;8.80;;
26953;SDS011;14508;50.924;11.600;2023-06-22T02:48:37;12.25;;;8.63;;
26953;SDS011;14508;50.924;11.600;2023-06-22T02:51:06;13.38;;;9.07;;
26953;SDS011;14508;50.924;11.600;2023-06-22T02:53:36;14.73;;;9.40;;
26953;SDS011;14508;50.924;11.600;2023-06-22T02:56:04;13.35;;;8.45;;
26953;SDS011;14508;50.924;11.600;2023-06-22T02:58:36;10.63;;;8.18;;
26953;SDS011;14508;50.924;11.600;2023-06-22T03:01:08;17.38;;;9.35;;
26953;SDS011;14508;50.924;11.600;2023-06-22T03:03:41;13.82;;;9.82;;
26953;SDS011;14508;50.924;11.600;2023-06-22T03:06:10;12.80;;;9.18;;
26953;SDS011;14508;50.924;11.600;2023-06-22T03:08:40;15.13;;;9.57;;
26953;SDS011;14508;50.924;11.600;2023-06-22T03:11:09;12.57;;;9.25;;
26953;SDS011;14508;50.924;11.600;2023-06-22T03:13:37;11.85;;;8.50;;
26953;SDS011;14508;50.924;11.600;2023-06-22T03:16:06;15.88;;;9.82;;
26953;SDS011;14508;50.924;11.600;2023-06-22T03:18:34;15.27;;;9.40;;
26953;SDS011;14508;50.924;11.600;2023-06-22T03:21:02;14.35;;;9.32;;
26953;SDS011;14508;50.924;11.600;2023-06-22T03:23:31;12.32;;;8.65;;
26953;SDS011;14508;50.924;11.600;2023-06-22T03:25:59;10.95;;;8.27;;
26953;SDS011;14508;50.924;11.600;2023-06-22T03:28:28;13.32;;;9.35;;
26953;SDS011;14508;50.924;11.600;2023-06-22T03:30:56;13.50;;;9.23;;
26953;SDS011;14508;50.924;11.600;2023-06-22T03:33:25;13.07;;;9.32;;
26953;SDS011;14508;50.924;11.600;2023-06-22T03:35:57;15.63;;;8.32;;
26953;SDS011;14508;50.924;11.600;2023-06-22T03:38:25;13.77;;;9.52;;
26953;SDS011;14508;50.924;11.600;2023-06-22T03:40:56;14.80;;;9.75;;
26953;SDS011;14508;50.924;11.600;2023-06-22T03:43:25;16.10;;;10.02;;
26953;SDS011;14508;50.924;11.600;2023-06-22T03:45:55;14.23;;;9.70;;
26953;SDS011;14508;50.924;11.600;2023-06-22T03:48:23;15.07;;;10.45;;
26953;SDS011;14508;50.924;11.600;2023-06-22T03:50:50;13.68;;;10.50;;
26953;SDS011;14508;50.924;11.600;2023-06-22T03:53:18;19.27;;;10.90;;
26953;SDS011;14508;50.924;11.600;2023-06-22T03:55:49;14.45;;;9.80;;
26953;SDS011;14508;50.924;11.600;2023-06-22T03:58:20;16.80;;;10.40;;
26953;SDS011;14508;50.924;11.600;2023-06-22T04:00:49;19.75;;;10.25;;
26953;SDS011;14508;50.924;11.600;2023-06-22T04:03:19;17.05;;;11.30;;
26953;SDS011;14508;50.924;11.600;2023-06-22T04:05:47;16.40;;;10.48;;
26953;SDS011;14508;50.924;11.600;2023-06-22T04:08:15;16.95;;;10.60;;
26953;SDS011;14508;50.924;11.600;2023-06-22T04:10:43;16.08;;;10.73;;
26953;SDS011;14508;50.924;11.600;2023-06-22T04:13:11;18.67;;;10.90;;
26953;SDS011;14508;50.924;11.600;2023-06-22T04:15:40;21.30;;;12.38;;
26953;SDS011;14508;50.924;11.600;2023-06-22T04:18:08;19.38;;;12.40;;
26953;SDS011;14508;50.924;11.600;2023-06-22T04:20:36;23.25;;;12.43;;
26953;SDS011;14508;50.924;11.600;2023-06-22T04:23:04;23.75;;;13.55;;
26953;SDS011;14508;50.924;11.600;2023-06-22T04:25:32;16.40;;;13.05;;
26953;SDS011;14508;50.924;11.600;2023-06-22T04:28:00;16.85;;;12.05;;
26953;SDS011;14508;50.924;11.600;2023-06-22T04:30:29;20.08;;;11.63;;
26953;SDS011;14508;50.924;11.600;2023-06-22T04:32:59;20.95;;;13.35;;
26953;SDS011;14508;50.924;11.600;2023-06-22T04:35:27;19.63;;;13.43;;
26953;SDS011;14508;50.924;11.600;2023-06-22T04:37:57;20.27;;;13.80;;
26953;SDS011;14508;50.924;11.600;2023-06-22T04:40:26;20.25;;;13.60;;
26953;SDS011;14508;50.924;11.600;2023-06-22T04:42:54;24.77;;;14.45;;
26953;SDS011;14508;50.924;11.600;2023-06-22T04:45:22;20.33;;;13.82;;
26953;SDS011;14508;50.924;11.600;2023-06-22T04:47:50;19.17;;;13.20;;
26953;SDS011;14508;50.924;11.600;2023-06-22T04:50:19;21.08;;;13.93;;
26953;SDS011;14508;50.924;11.600;2023-06-22T04:52:50;19.40;;;13.30;;
26953;SDS011;14508;50.924;11.600;2023-06-22T04:55:19;18.50;;;11.88;;
26953;SDS011;14508;50.924;11.600;2023-06-22T04:57:47;25.85;;;13.45;;
26953;SDS011;14508;50.924;11.600;2023-06-22T05:00:16;24.27;;;12.90;;
26953;SDS011;14508;50.924;11.600;2023-06-22T05:02:46;22.23;;;13.18;;
26953;SDS011;14508;50.924;11.600;2023-06-22T05:05:14;20.58;;;12.60;;
26953;SDS011;14508;50.924;11.600;2023-06-22T05:07:44;23.48;;;13.95;;
26953;SDS011;14508;50.924;11.600;2023-06-22T05:10:14;28.98;;;12.98;;
26953;SDS011;14508;50.924;11.600;2023-06-22T05:12:42;20.73;;;13.40;;
26953;SDS011;14508;50.924;11.600;2023-06-22T05:15:10;21.98;;;12.77;;
26953;SDS011;14508;50.924;11.600;2023-06-22T05:17:38;17.98;;;13.05;;
26953;SDS011;14508;50.924;11.600;2023-06-22T05:20:10;25.15;;;13.55;;
26953;SDS011;14508;50.924;11.600;2023-06-22T05:22:38;21.92;;;13.10;;
26953;SDS011;14508;50.924;11.600;2023-06-22T05:25:09;21.23;;;12.98;;
26953;SDS011;14508;50.924;11.600;2023-06-22T05:27:38;22.67;;;12.68;;
26953;SDS011;14508;50.924;11.600;2023-06-22T05:30:06;21.67;;;12.73;;
26953;SDS011;14508;50.924;11.600;2023-06-22T05:32:36;22.25;;;13.50;;
26953;SDS011;14508;50.924;11.600;2023-06-22T05:35:04;21.48;;;13.50;;
26953;SDS011;14508;50.924;11.600;2023-06-22T05:37:32;20.27;;;14.55;;
26953;SDS011;14508;50.924;11.600;2023-06-22T05:40:00;22.02;;;13.52;;
26953;SDS011;14508;50.924;11.600;2023-06-22T05:42:30;20.15;;;13.43;;
26953;SDS011;14508;50.924;11.600;2023-06-22T05:44:58;21.23;;;13.15;;
26953;SDS011;14508;50.924;11.600;2023-06-22T05:47:26;20.08;;;13.60;;
26953;SDS011;14508;50.924;11.600;2023-06-22T05:49:54;17.92;;;11.95;;
26953;SDS011;14508;50.924;11.600;2023-06-22T05:52:22;21.38;;;13.18;;
26953;SDS011;14508;50.924;11.600;2023-06-22T05:54:50;19.65;;;12.98;;
26953;SDS011;14508;50.924;11.600;2023-06-22T05:57:18;23.85;;;13.15;;
26953;SDS011;14508;50.924;11.600;2023-06-22T05:59:49;23.10;;;14.27;;
26953;SDS011;14508;50.924;11.600;2023-06-22T06:02:17;22.65;;;13.02;;
26953;SDS011;14508;50.924;11.600;2023-06-22T06:04:46;18.45;;;13.15;;
26953;SDS011;14508;50.924;11.600;2023-06-22T06:07:13;19.88;;;13.27;;
26953;SDS011;14508;50.924;11.600;2023-06-22T06:09:42;19.50;;;13.27;;
26953;SDS011;14508;50.924;11.600;2023-06-22T06:12:14;21.33;;;14.55;;
26953;SDS011;14508;50.924;11.600;2023-06-22T06:14:42;17.83;;;12.93;;
26953;SDS011;14508;50.924;11.600;2023-06-22T06:17:11;22.63;;;13.30;;
26953;SDS011;14508;50.924;11.600;2023-06-22T06:19:39;23.25;;;13.15;;
26953;SDS011;14508;50.924;11.600;2023-06-22T06:22:07;24.50;;;13.65;;
26953;SDS011;14508;50.924;11.600;2023-06-22T06:24:35;18.98;;;12.50;;
26953;SDS011;14508;50.924;11.600;2023-06-22T06:27:03;19.70;;;13.35;;
26953;SDS011;14508;50.924;11.600;2023-06-22T06:29:31;18.17;;;12.73;;
26953;SDS011;14508;50.924;11.600;2023-06-22T06:32:00;23.25;;;14.45;;
26953;SDS011;14508;50.924;11.600;2023-06-22T06:34:29;19.73;;;13.80;;
26953;SDS011;14508;50.924;11.600;2023-06-22T06:36:57;19.70;;;13.20;;
26953;SDS011;14508;50.924;11.600;2023-06-22T06:39:25;20.95;;;14.10;;
26953;SDS011;14508;50.924;11.600;2023-06-22T06:41:53;23.92;;;12.88;;
26953;SDS011;14508;50.924;11.600;2023-06-22T06:44:21;23.15;;;13.63;;
26953;SDS011;14508;50.924;11.600;2023-06-22T06:46:49;17.63;;;12.60;;
26953;SDS011;14508;50.924;11.600;2023-06-22T06:49:16;21.52;;;12.60;;
26953;SDS011;14508;50.924;11.600;2023-06-22T06:51:46;17.38;;;11.95;;
26953;SDS011;14508;50.924;11.600;2023-06-22T06:54:14;26.02;;;13.05;;
26953;SDS011;14508;50.924;11.600;2023-06-22T06:56:42;21.38;;;12.80;;
26953;SDS011;14508;50.924;11.600;2023-06-22T06:59:14;19.42;;;13.43;;
26953;SDS011;14508;50.924;11.600;2023-06-22T07:01:42;17.23;;;13.05;;
26953;SDS011;14508;50.924;11.600;2023-06-22T07:04:11;18.75;;;12.98;;
26953;SDS011;14508;50.924;11.600;2023-06-22T07:06:39;21.23;;;14.25;;
26953;SDS011;14508;50.924;11.600;2023-06-22T07:09:08;21.45;;;13.50;;
26953;SDS011;14508;50.924;11.600;2023-06-22T07:11:36;16.77;;;12.65;;
26953;SDS011;14508;50.924;11.600;2023-06-22T07:14:04;22.08;;;13.98;;
26953;SDS011;14508;50.924;11.600;2023-06-22T07:16:32;19.27;;;13.68;;
26953;SDS011;14508;50.924;11.600;2023-06-22T07:18:59;18.75;;;12.65;;
26953;SDS011;14508;50.924;11.600;2023-06-22T07:21:27;17.27;;;13.05;;
26953;SDS011;14508;50.924;11.600;2023-06-22T07:23:55;19.98;;;12.57;;
26953;SDS011;14508;50.924;11.600;2023-06-22T07:26:24;18.77;;;12.88;;
26953;SDS011;14508;50.924;11.600;2023-06-22T07:28:52;21.55;;;13.00;;
26953;SDS011;14508;50.924;11.600;2023-06-22T07:31:20;17.40;;;12.57;;
26953;SDS011;14508;50.924;11.600;2023-06-22T07:33:48;20.48;;;13.20;;
26953;SDS011;14508;50.924;11.600;2023-06-22T07:36:16;19.33;;;12.82;;
26953;SDS011;14508;50.924;11.600;2023-06-22T07:38:44;21.58;;;13.70;;
26953;SDS011;14508;50.924;11.600;2023-06-22T07:41:12;18.67;;;13.98;;
26953;SDS011;14508;50.924;11.600;2023-06-22T07:43:42;22.02;;;12.80;;
26953;SDS011;14508;50.924;11.600;2023-06-22T07:46:10;18.48;;;12.30;;
26953;SDS011;14508;50.924;11.600;2023-06-22T07:48:38;17.55;;;12.77;;
26953;SDS011;14508;50.924;11.600;2023-06-22T07:51:08;17.63;;;12.38;;
26953;SDS011;14508;50.924;11.600;2023-06-22T07:53:39;16.85;;;11.48;;
26953;SDS011;14508;50.924;11.600;2023-06-22T07:56:07;20.60;;;12.05;;
26953;SDS011;14508;50.924;11.600;2023-06-22T07:58:37;15.85;;;11.27;;
26953;SDS011;14508;50.924;11.600;2023-06-22T08:01:06;16.13;;;12.07;;
26953;SDS011;14508;50.924;11.600;2023-06-22T08:03:36;15.45;;;11.32;;
26953;SDS011;14508;50.924;11.600;2023-06-22T08:06:04;16.52;;;11.38;;
26953;SDS011;14508;50.924;11.600;2023-06-22T08:08:32;19.92;;;11.52;;
26953;SDS011;14508;50.924;11.600;2023-06-22T08:11:00;18.70;;;11.00;;
26953;SDS011;14508;50.924;11.600;2023-06-22T08:13:27;21.17;;;11.32;;
26953;SDS011;14508;50.924;11.600;2023-06-22T08:15:55;22.27;;;9.88;;
26953;SDS011;14508;50.924;11.600;2023-06-22T08:18:25;19.50;;;10.70;;
26953;SDS011;14508;50.924;11.600;2023-06-22T08:20:52;14.90;;;10.07;;
26953;SDS011;14508;50.924;11.600;2023-06-22T08:23:20;17.15;;;10.10;;
26953;SDS011;14508;50.924;11.600;2023-06-22T08:25:48;14.05;;;8.75;;
26953;SDS011;14508;50.924;11.600;2023-06-22T08:28:16;9.70;;;7.55;;
26953;SDS011;14508;50.924;11.600;2023-06-22T08:30:44;11.77;;;7.75;;
26953;SDS011;14508;50.924;11.600;2023-06-22T08:33:12;10.27;;;8.25;;
26953;SDS011;14508;50.924;11.600;2023-06-22T08:35:54;11.05;;;7.78;;
26953;SDS011;14508;50.924;11.600;2023-06-22T08:38:22;10.32;;;7.22;;
26953;SDS011;14508;50.924;11.600;2023-06-22T08:40:50;10.73;;;7.20;;
26953;SDS011;14508;50.924;11.600;2023-06-22T08:43:18;10.60;;;7.32;;
26953;SDS011;14508;50.924;11.600;2023-06-22T08:45:46;12.15;;;6.90;;
26953;SDS011;14508;50.924;11.600;2023-06-22T08:48:14;7.97;;;6.45;;
26953;SDS011;14508;50.924;11.600;2023-06-22T08:50:42;8.30;;;6.95;;
26953;SDS011;14508;50.924;11.600;2023-06-22T08:53:11;10.18;;;6.75;;
26953;SDS011;14508;50.924;11.600;2023-06-22T08:55:39;10.05;;;6.65;;
26953;SDS011;14508;50.924;11.600;2023-06-22T08:58:07;10.88;;;6.95;;
26953;SDS011;14508;50.924;11.600;2023-06-22T09:00:35;13.55;;;6.90;;
26953;SDS011;14508;50.924;11.600;2023-06-22T09:03:03;9.38;;;7.10;;
26953;SDS011;14508;50.924;11.600;2023-06-22T09:05:32;9.90;;;6.32;;
26953;SDS011;14508;50.924;11.600;2023-06-22T09:08:00;9.18;;;7.03;;
26953;SDS011;14508;50.924;11.600;2023-06-22T09:10:29;10.55;;;6.57;;
26953;SDS011;14508;50.924;11.600;2023-06-22T09:12:57;9.10;;;7.25;;
26953;SDS011;14508;50.924;11.600;2023-06-22T09:15:25;8.43;;;5.88;;
26953;SDS011;14508;50.924;11.600;2023-06-22T09:17:53;8.77;;;6.55;;
26953;SDS011;14508;50.924;11.600;2023-06-22T09:20:22;9.63;;;6.65;;
26953;SDS011;14508;50.924;11.600;2023-06-22T09:22:50;13.63;;;7.15;;
26953;SDS011;14508;50.924;11.600;2023-06-22T09:25:17;13.52;;;7.18;;
26953;SDS011;14508;50.924;11.600;2023-06-22T09:27:48;13.70;;;7.95;;
26953;SDS011;14508;50.924;11.600;2023-06-22T09:30:15;8.35;;;6.70;;
26953;SDS011;14508;50.924;11.600;2023-06-22T09:32:43;11.73;;;6.90;;
26953;SDS011;14508;50.924;11.600;2023-06-22T09:35:11;10.10;;;7.18;;
26953;SDS011;14508;50.924;11.600;2023-06-22T09:37:40;11.30;;;7.28;;
26953;SDS011;14508;50.924;11.600;2023-06-22T09:40:08;12.48;;;7.30;;
26953;SDS011;14508;50.924;11.600;2023-06-22T09:42:38;13.20;;;6.65;;
26953;SDS011;14508;50.924;11.600;2023-06-22T09:45:08;14.25;;;7.45;;
26953;SDS011;14508;50.924;11.600;2023-06-22T09:47:36;9.45;;;6.97;;
26953;SDS011;14508;50.924;11.600;2023-06-22T09:50:05;10.32;;;6.55;;
26953;SDS011;14508;50.924;11.600;2023-06-22T09:52:33;12.95;;;6.75;;
26953;SDS011;14508;50.924;11.600;2023-06-22T09:55:13;8.45;;;6.68;;
26953;SDS011;14508;50.924;11.600;2023-06-22T09:57:43;13.45;;;7.28;;
26953;SDS011;14508;50.924;11.600;2023-06-22T10:00:12;9.18;;;7.00;;
26953;SDS011;14508;50.924;11.600;2023-06-22T10:02:41;11.02;;;6.70;;
26953;SDS011;14508;50.924;11.600;2023-06-22T10:05:10;8.93;;;6.78;;
26953;SDS011;14508;50.924;11.600;2023-06-22T10:07:39;8.98;;;6.95;;
26953;SDS011;14508;50.924;11.600;2023-06-22T10:10:10;15.50;;;7.75;;
26953;SDS011;14508;50.924;11.600;2023-06-22T10:12:40;10.25;;;6.88;;
26953;SDS011;14508;50.924;11.600;2023-06-22T10:15:11;8.63;;;7.07;;
26953;SDS011;14508;50.924;11.600;2023-06-22T10:17:40;13.07;;;7.65;;
26953;SDS011;14508;50.924;11.600;2023-06-22T10:20:08;10.27;;;7.20;;
26953;SDS011;14508;50.924;11.600;2023-06-22T10:22:39;8.95;;;6.13;;
26953;SDS011;14508;50.924;11.600;2023-06-22T10:25:08;9.30;;;7.00;;
26953;SDS011;14508;50.924;11.600;2023-06-22T10:27:36;8.90;;;6.82;;
26953;SDS011;14508;50.924;11.600;2023-06-22T10:30:06;11.20;;;6.80;;
26953;SDS011;14508;50.924;11.600;2023-06-22T10:32:37;9.63;;;7.25;;
26953;SDS011;14508;50.924;11.600;2023-06-22T10:35:05;9.15;;;6.78;;
26953;SDS011;14508;50.924;11.600;2023-06-22T10:37:34;13.15;;;6.68;;
26953;SDS011;14508;50.924;11.600;2023-06-22T10:40:02;10.75;;;7.32;;
26953;SDS011;14508;50.924;11.600;2023-06-22T10:42:32;9.70;;;6.60;;
26953;SDS011;14508;50.924;11.600;2023-06-22T10:44:59;10.00;;;7.22;;
26953;SDS011;14508;50.924;11.600;2023-06-22T10:47:27;10.90;;;6.38;;
26953;SDS011;14508;50.924;11.600;2023-06-22T10:49:57;11.38;;;7.20;;
26953;SDS011;14508;50.924;11.600;2023-06-22T10:52:25;9.02;;;6.38;;
26953;SDS011;14508;50.924;11.600;2023-06-22T10:54:52;9.55;;;6.60;;
26953;SDS011;14508;50.924;11.600;2023-06-22T10:57:21;9.27;;;7.88;;
26953;SDS011;14508;50.924;11.600;2023-06-22T10:59:49;8.50;;;7.05;;
26953;SDS011;14508;50.924;11.600;2023-06-22T11:02:17;11.50;;;7.25;;
26953;SDS011;14508;50.924;11.600;2023-06-22T11:04:45;11.98;;;8.30;;
26953;SDS011;14508;50.924;11.600;2023-06-22T11:07:15;12.23;;;6.93;;
26953;SDS011;14508;50.924;11.600;2023-06-22T11:09:43;9.32;;;7.40;;
26953;SDS011;14508;50.924;11.600;2023-06-22T11:12:11;11.32;;;7.53;;
26953;SDS011;14508;50.924;11.600;2023-06-22T11:14:39;12.07;;;7.35;;
26953;SDS011;14508;50.924;11.600;2023-06-22T11:17:07;11.25;;;7.32;;
26953;SDS011;14508;50.924;11.600;2023-06-22T11:19:35;13.02;;;7.55;;
26953;SDS011;14508;50.924;11.600;2023-06-22T11:22:03;9.15;;;7.55;;
26953;SDS011;14508;50.924;11.600;2023-06-22T11:24:33;16.27;;;7.35;;
26953;SDS011;14508;50.924;11.600;2023-06-22T11:27:01;10.38;;;7.63;;
26953;SDS011;14508;50.924;11.600;2023-06-22T11:29:29;10.98;;;8.15;;
26953;SDS011;14508;50.924;11.600;2023-06-22T11:32:17;12.10;;;6.95;;
26953;SDS011;14508;50.924;11.600;2023-06-22T11:34:45;9.55;;;7.20;;
26953;SDS011;14508;50.924;11.600;2023-06-22T11:37:13;15.32;;;7.78;;
26953;SDS011;14508;50.924;11.600;2023-06-22T11:39:42;10.90;;;7.15;;
26953;SDS011;14508;50.924;11.600;2023-06-22T11:42:24;9.57;;;7.70;;
26953;SDS011;14508;50.924;11.600;2023-06-22T11:44:56;17.77;;;7.85;;
26953;SDS011;14508;50.924;11.600;2023-06-22T11:47:25;10.70;;;7.97;;
26953;SDS011;14508;50.924;11.600;2023-06-22T11:49:53;9.68;;;8.18;;
26953;SDS011;14508;50.924;11.600;2023-06-22T11:52:21;11.45;;;7.93;;
26953;SDS011;14508;50.924;11.600;2023-06-22T11:54:50;10.07;;;7.28;;
26953;SDS011;14508;50.924;11.600;2023-06-22T11:57:18;8.68;;;6.90;;
26953;SDS011;14508;50.924;11.600;2023-06-22T11:59:46;10.45;;;7.65;;
26953;SDS011;14508;50.924;11.600;2023-06-22T12:02:14;11.02;;;8.32;;
26953;SDS011;14508;50.924;11.600;2023-06-22T12:04:42;9.48;;;7.97;;
26953;SDS011;14508;50.924;11.600;2023-06-22T12:07:10;12.32;;;7.00;;
26953;SDS011;14508;50.924;11.600;2023-06-22T12:09:38;10.02;;;7.60;;
26953;SDS011;14508;50.924;11.600;2023-06-22T12:12:07;10.55;;;7.18;;
26953;SDS011;14508;50.924;11.600;2023-06-22T12:14:35;11.85;;;8.02;;
26953;SDS011;14508;50.924;11.600;2023-06-22T12:17:03;13.48;;;6.85;;
26953;SDS011;14508;50.924;11.600;2023-06-22T12:19:31;10.27;;;7.43;;
26953;SDS011;14508;50.924;11.600;2023-06-22T12:21:59;12.38;;;7.15;;
26953;SDS011;14508;50.924;11.600;2023-06-22T12:24:27;11.02;;;7.72;;
26953;SDS011;14508;50.924;11.600;2023-06-22T12:26:55;18.98;;;7.28;;
26953;SDS011;14508;50.924;11.600;2023-06-22T12:29:24;10.52;;;7.50;;
26953;SDS011;14508;50.924;11.600;2023-06-22T12:31:52;8.63;;;7.20;;
26953;SDS011;14508;50.924;11.600;2023-06-22T12:34:20;8.13;;;7.13;;
26953;SDS011;14508;50.924;11.600;2023-06-22T12:36:49;15.20;;;7.88;;
26953;SDS011;14508;50.924;11.600;2023-06-22T12:39:17;11.65;;;8.07;;
26953;SDS011;14508;50.924;11.600;2023-06-22T12:41:45;10.18;;;7.75;;
26953;SDS011;14508;50.924;11.600;2023-06-22T12:44:13;8.60;;;6.65;;
26953;SDS011;14508;50.924;11.600;2023-06-22T12:46:42;9.45;;;7.53;;
26953;SDS011;14508;50.924;11.600;2023-06-22T12:49:10;9.07;;;7.18;;
26953;SDS011;14508;50.924;11.600;2023-06-22T12:51:39;10.27;;;7.90;;
26953;SDS011;14508;50.924;11.600;2023-06-22T12:54:08;11.90;;;8.32;;
26953;SDS011;14508;50.924;11.600;2023-06-22T12:56:36;11.00;;;8.23;;
26953;SDS011;14508;50.924;11.600;2023-06-22T12:59:04;10.30;;;7.78;;
26953;SDS011;14508;50.924;11.600;2023-06-22T13:01:32;12.90;;;8.35;;
26953;SDS011;14508;50.924;11.600;2023-06-22T13:04:02;9.50;;;7.25;;
26953;SDS011;14508;50.924;11.600;2023-06-22T13:06:30;12.27;;;8.43;;
26953;SDS011;14508;50.924;11.600;2023-06-22T13:08:58;11.35;;;7.50;;
26953;SDS011;14508;50.924;11.600;2023-06-22T13:11:29;9.98;;;8.02;;
26953;SDS011;14508;50.924;11.600;2023-06-22T13:13:56;8.68;;;7.65;;
26953;SDS011;14508;50.924;11.600;2023-06-22T13:16:24;11.43;;;7.72;;
26953;SDS011;14508;50.924;11.600;2023-06-22T13:18:52;9.57;;;7.25;;
26953;SDS011;14508;50.924;11.600;2023-06-22T13:21:21;11.85;;;8.75;;
26953;SDS011;14508;50.924;11.600;2023-06-22T13:23:49;8.88;;;7.22;;
26953;SDS011;14508;50.924;11.600;2023-06-22T13:26:17;9.88;;;7.63;;
26953;SDS011;14508;50.924;11.600;2023-06-22T13:28:45;12.13;;;7.68;;
26953;SDS011;14508;50.924;11.600;2023-06-22T13:31:13;9.98;;;7.70;;
26953;SDS011;14508;50.924;11.600;2023-06-22T13:33:41;11.93;;;8.02;;
26953;SDS011;14508;50.924;11.600;2023-06-22T13:36:11;10.82;;;7.28;;
26953;SDS011;14508;50.924;11.600;2023-06-22T13:38:41;9.48;;;8.32;;
26953;SDS011;14508;50.924;11.600;2023-06-22T13:41:08;11.70;;;7.72;;
26953;SDS011;14508;50.924;11.600;2023-06-22T13:43:36;11.23;;;7.43;;
26953;SDS011;14508;50.924;11.600;2023-06-22T13:46:04;10.60;;;7.80;;
26953;SDS011;14508;50.924;11.600;2023-06-22T13:48:32;10.05;;;7.60;;
26953;SDS011;14508;50.924;11.600;2023-06-22T13:51:00;11.32;;;8.23;;
26953;SDS011;14508;50.924;11.600;2023-06-22T13:53:28;9.23;;;7.30;;
26953;SDS011;14508;50.924;11.600;2023-06-22T13:55:57;9.30;;;7.50;;
26953;SDS011;14508;50.924;11.600;2023-06-22T13:58:25;10.35;;;7.95;;
26953;SDS011;14508;50.924;11.600;2023-06-22T14:00:53;10.52;;;7.70;;
26953;SDS011;14508;50.924;11.600;2023-06-22T14:03:22;13.50;;;8.45;;
26953;SDS011;14508;50.924;11.600;2023-06-22T14:05:51;10.13;;;7.60;;
26953;SDS011;14508;50.924;11.600;2023-06-22T14:08:22;11.73;;;7.95;;
26953;SDS011;14508;50.924;11.600;2023-06-22T14:11:08;11.77;;;7.80;;
26953;SDS011;14508;50.924;11.600;2023-06-22T14:13:36;8.43;;;7.53;;
26953;SDS011;14508;50.924;11.600;2023-06-22T14:16:04;11.57;;;7.78;;
26953;SDS011;14508;50.924;11.600;2023-06-22T14:18:32;14.38;;;7.30;;
26953;SDS011;14508;50.924;11.600;2023-06-22T14:21:00;10.30;;;7.28;;
26953;SDS011;14508;50.924;11.600;2023-06-22T14:23:28;12.52;;;7.35;;
26953;SDS011;14508;50.924;11.600;2023-06-22T14:25:56;12.02;;;7.50;;
26953;SDS011;14508;50.924;11.600;2023-06-22T14:28:25;10.85;;;7.30;;